sensor_id;sensor_type;location;lat;lon;timestamp;P1;durP1;ratioP1;P2;durP2;ratioP2
29568;SDS011;16501;51.462;14.346;2023-12-07T00:02:07;15.60;;;9.23;;
29568;SDS011;16501;51.462;14.346;2023-12-07T00:04:32;15.25;;;8.90;;
29568;SDS011;16501;51.462;14.346;2023-12-07T00:06:58;14.65;;;8.75;;
29568;SDS011;16501;51.462;14.346;2023-12-07T00:09:23;13.55;;;8.68;;
29568;SDS011;16501;51.462;14.346;2023-12-07T00:11:48;15.25;;;9.15;;
29568;SDS011;16501;51.462;14.346;2023-12-07T00:14:14;13.52;;;9.05;;
29568;SDS011;16501;51.462;14.346;2023-12-07T00:16:39;13.50;;;8.85;;
29568;SDS011;16501;51.462;14.346;2023-12-07T00:19:05;17.42;;;10.18;;
29568;SDS011;16501;51.462;14.346;2023-12-07T00:21:30;15.55;;;9.57;;
29568;SDS011;16501;51.462;14.346;2023-12-07T00:23:55;13.05;;;8.68;;
29568;SDS011;16501;51.462;14.346;2023-12-07T00:26:21;13.82;;;8.80;;
29568;SDS011;16501;51.462;14.346;2023-12-07T00:28:46;13.38;;;9.23;;
29568;SDS011;16501;51.462;14.346;2023-12-07T00:31:11;12.77;;;8.63;;
29568;SDS011;16501;51.462;14.346;2023-12-07T00:33:36;14.90;;;8.75;;
29568;SDS011;16501;51.462;14.346;2023-12-07T00:36:02;12.45;;;9.07;;
29568;SDS011;16501;51.462;14.346;2023-12-07T00:38:28;14.80;;;9.13;;
29568;SDS011;16501;51.462;14.346;2023-12-07T00:40:53;15.15;;;9.25;;
29568;SDS011;16501;51.462;14.346;2023-12-07T00:43:19;14.48;;;8.93;;
29568;SDS011;16501;51.462;14.346;2023-12-07T00:45:44;16.15;;;8.90;;
29568;SDS011;16501;51.462;14.346;2023-12-07T00:48:10;14.73;;;8.90;;
29568;SDS011;16501;51.462;14.346;2023-12-07T00:50:35;13.70;;;9.35;;
29568;SDS011;16501;51.462;14.346;2023-12-07T00:53:00;13.43;;;8.63;;
29568;SDS011;16501;51.462;14.346;2023-12-07T00:55:25;14.00;;;9.32;;
29568;SDS011;16501;51.462;14.346;2023-12-07T00:57:51;13.27;;;8.73;;
29568;SDS011;16501;51.462;14.346;2023-12-07T01:00:16;13.18;;;8.18;;
29568;SDS011;16501;51.462;14.346;2023-12-07T01:02:41;15.23;;;9.15;;
29568;SDS011;16501;51.462;14.346;2023-12-07T01:05:06;14.38;;;9.68;;
29568;SDS011;16501;51.462;14.346;2023-12-07T01:07:33;16.63;;;8.90;;
29568;SDS011;16501;51.462;14.346;2023-12-07T01:09:58;15.30;;;9.10;;
29568;SDS011;16501;51.462;14.346;2023-12-07T01:12:24;15.15;;;9.25;;
29568;SDS011;16501;51.462;14.346;2023-12-07T01:14:49;14.32;;;8.80;;
29568;SDS011;16501;51.462;14.346;2023-12-07T01:17:15;13.75;;;9.90;;
29568;SDS011;16501;51.462;14.346;2023-12-07T01:19:40;15.98;;;8.90;;
29568;SDS011;16501;51.462;14.346;2023-12-07T01:22:05;13.82;;;8.98;;
29568;SDS011;16501;51.462;14.346;2023-12-07T01:24:30;12.38;;;8.63;;
29568;SDS011;16501;51.462;14.346;2023-12-07T01:26:56;11.82;;;8.05;;
29568;SDS011;16501;51.462;14.346;2023-12-07T01:29:21;15.02;;;8.93;;
29568;SDS011;16501;51.462;14.346;2023-12-07T01:31:46;15.48;;;9.25;;
29568;SDS011;16501;51.462;14.346;2023-12-07T01:34:11;13.40;;;8.55;;
29568;SDS011;16501;51.462;14.346;2023-12-07T01:36:37;13.80;;;8.82;;
29568;SDS011;16501;51.462;14.346;2023-12-07T01:39:02;13.85;;;9.23;;
29568;SDS011;16501;51.462;14.346;2023-12-07T01:41:28;15.30;;;9.60;;
29568;SDS011;16501;51.462;14.346;2023-12-07T01:43:53;16.20;;;9.52;;
29568;SDS011;16501;51.462;14.346;2023-12-07T01:46:18;12.88;;;9.23;;
29568;SDS011;16501;51.462;14.346;2023-12-07T01:48:44;15.80;;;9.75;;
29568;SDS011;16501;51.462;14.346;2023-12-07T01:51:13;15.48;;;10.10;;
29568;SDS011;16501;51.462;14.346;2023-12-07T01:53:39;15.98;;;10.48;;
29568;SDS011;16501;51.462;14.346;2023-12-07T01:56:04;16.23;;;10.30;;
29568;SDS011;16501;51.462;14.346;2023-12-07T01:58:32;17.05;;;11.00;;
29568;SDS011;16501;51.462;14.346;2023-12-07T02:00:57;16.48;;;10.15;;
29568;SDS011;16501;51.462;14.346;2023-12-07T02:03:23;17.17;;;10.75;;
29568;SDS011;16501;51.462;14.346;2023-12-07T02:05:48;17.83;;;10.80;;
29568;SDS011;16501;51.462;14.346;2023-12-07T02:08:14;17.15;;;11.15;;
29568;SDS011;16501;51.462;14.346;2023-12-07T02:10:39;16.73;;;11.02;;
29568;SDS011;16501;51.462;14.346;2023-12-07T02:13:05;17.52;;;10.73;;
29568;SDS011;16501;51.462;14.346;2023-12-07T02:15:31;18.65;;;11.40;;
29568;SDS011;16501;51.462;14.346;2023-12-07T02:20:34;20.55;;;11.85;;
29568;SDS011;16501;51.462;14.346;2023-12-07T02:23:05;18.33;;;11.48;;
29568;SDS011;16501;51.462;14.346;2023-12-07T02:25:36;22.92;;;13.07;;
29568;SDS011;16501;51.462;14.346;2023-12-07T02:28:18;22.88;;;13.13;;
29568;SDS011;16501;51.462;14.346;2023-12-07T02:30:43;20.85;;;13.10;;
29568;SDS011;16501;51.462;14.346;2023-12-07T02:33:09;24.35;;;13.57;;
29568;SDS011;16501;51.462;14.346;2023-12-07T02:35:35;23.15;;;13.95;;
29568;SDS011;16501;51.462;14.346;2023-12-07T02:38:01;24.65;;;13.35;;
29568;SDS011;16501;51.462;14.346;2023-12-07T02:40:28;20.92;;;12.93;;
29568;SDS011;16501;51.462;14.346;2023-12-07T02:42:54;22.30;;;13.63;;
29568;SDS011;16501;51.462;14.346;2023-12-07T02:45:19;26.98;;;14.60;;
29568;SDS011;16501;51.462;14.346;2023-12-07T02:47:45;23.33;;;13.77;;
29568;SDS011;16501;51.462;14.346;2023-12-07T02:50:11;22.77;;;13.02;;
29568;SDS011;16501;51.462;14.346;2023-12-07T02:52:37;25.20;;;14.32;;
29568;SDS011;16501;51.462;14.346;2023-12-07T02:55:03;23.33;;;14.52;;
29568;SDS011;16501;51.462;14.346;2023-12-07T02:57:29;23.83;;;13.70;;
29568;SDS011;16501;51.462;14.346;2023-12-07T02:59:55;22.92;;;12.75;;
29568;SDS011;16501;51.462;14.346;2023-12-07T03:02:20;24.38;;;14.07;;
29568;SDS011;16501;51.462;14.346;2023-12-07T03:04:46;25.30;;;14.13;;
29568;SDS011;16501;51.462;14.346;2023-12-07T03:07:11;27.38;;;14.30;;
29568;SDS011;16501;51.462;14.346;2023-12-07T03:09:37;24.27;;;13.57;;
29568;SDS011;16501;51.462;14.346;2023-12-07T03:12:02;23.65;;;14.23;;
29568;SDS011;16501;51.462;14.346;2023-12-07T03:14:28;25.27;;;13.27;;
29568;SDS011;16501;51.462;14.346;2023-12-07T03:16:53;21.42;;;13.43;;
29568;SDS011;16501;51.462;14.346;2023-12-07T03:19:21;23.05;;;13.50;;
29568;SDS011;16501;51.462;14.346;2023-12-07T03:21:46;24.17;;;13.63;;
29568;SDS011;16501;51.462;14.346;2023-12-07T03:24:11;23.80;;;13.60;;
29568;SDS011;16501;51.462;14.346;2023-12-07T03:26:37;24.17;;;13.98;;
29568;SDS011;16501;51.462;14.346;2023-12-07T03:29:02;25.77;;;14.60;;
29568;SDS011;16501;51.462;14.346;2023-12-07T03:31:28;24.42;;;13.93;;
29568;SDS011;16501;51.462;14.346;2023-12-07T03:33:54;23.02;;;12.73;;
29568;SDS011;16501;51.462;14.346;2023-12-07T03:36:20;22.90;;;13.32;;
29568;SDS011;16501;51.462;14.346;2023-12-07T03:38:45;24.40;;;13.95;;
29568;SDS011;16501;51.462;14.346;2023-12-07T03:41:10;23.33;;;12.93;;
29568;SDS011;16501;51.462;14.346;2023-12-07T03:43:35;24.55;;;13.85;;
29568;SDS011;16501;51.462;14.346;2023-12-07T03:46:04;23.60;;;13.63;;
29568;SDS011;16501;51.462;14.346;2023-12-07T03:48:30;22.25;;;13.43;;
29568;SDS011;16501;51.462;14.346;2023-12-07T03:50:55;24.95;;;13.82;;
29568;SDS011;16501;51.462;14.346;2023-12-07T03:53:20;21.42;;;13.35;;
29568;SDS011;16501;51.462;14.346;2023-12-07T03:55:45;23.10;;;14.30;;
29568;SDS011;16501;51.462;14.346;2023-12-07T03:58:11;25.92;;;14.07;;
29568;SDS011;16501;51.462;14.346;2023-12-07T04:00:38;24.38;;;14.77;;
29568;SDS011;16501;51.462;14.346;2023-12-07T04:03:03;22.40;;;13.52;;
29568;SDS011;16501;51.462;14.346;2023-12-07T04:05:29;24.88;;;13.82;;
29568;SDS011;16501;51.462;14.346;2023-12-07T04:07:54;24.33;;;14.60;;
29568;SDS011;16501;51.462;14.346;2023-12-07T04:10:19;27.75;;;14.45;;
29568;SDS011;16501;51.462;14.346;2023-12-07T04:12:44;25.67;;;13.82;;
29568;SDS011;16501;51.462;14.346;2023-12-07T04:15:09;25.67;;;14.43;;
29568;SDS011;16501;51.462;14.346;2023-12-07T04:17:35;25.83;;;15.18;;
29568;SDS011;16501;51.462;14.346;2023-12-07T04:20:00;25.08;;;14.90;;
29568;SDS011;16501;51.462;14.346;2023-12-07T04:22:26;24.00;;;14.35;;
29568;SDS011;16501;51.462;14.346;2023-12-07T04:24:56;24.25;;;14.52;;
29568;SDS011;16501;51.462;14.346;2023-12-07T04:27:21;25.58;;;15.05;;
29568;SDS011;16501;51.462;14.346;2023-12-07T04:29:47;26.90;;;15.30;;
29568;SDS011;16501;51.462;14.346;2023-12-07T04:32:12;26.02;;;15.27;;
29568;SDS011;16501;51.462;14.346;2023-12-07T04:34:37;25.33;;;15.02;;
29568;SDS011;16501;51.462;14.346;2023-12-07T04:37:03;22.95;;;14.32;;
29568;SDS011;16501;51.462;14.346;2023-12-07T04:39:28;23.88;;;15.13;;
29568;SDS011;16501;51.462;14.346;2023-12-07T04:41:53;25.23;;;14.82;;
29568;SDS011;16501;51.462;14.346;2023-12-07T04:44:19;25.73;;;14.57;;
29568;SDS011;16501;51.462;14.346;2023-12-07T04:46:44;27.17;;;14.77;;
29568;SDS011;16501;51.462;14.346;2023-12-07T04:49:09;23.80;;;15.13;;
29568;SDS011;16501;51.462;14.346;2023-12-07T04:51:35;24.42;;;14.70;;
29568;SDS011;16501;51.462;14.346;2023-12-07T04:54:00;24.77;;;15.88;;
29568;SDS011;16501;51.462;14.346;2023-12-07T04:56:25;25.50;;;14.23;;
29568;SDS011;16501;51.462;14.346;2023-12-07T04:58:50;21.55;;;14.45;;
29568;SDS011;16501;51.462;14.346;2023-12-07T05:01:16;27.35;;;15.57;;
29568;SDS011;16501;51.462;14.346;2023-12-07T05:03:41;24.50;;;15.25;;
29568;SDS011;16501;51.462;14.346;2023-12-07T05:06:06;26.58;;;15.02;;
29568;SDS011;16501;51.462;14.346;2023-12-07T05:08:32;23.85;;;14.57;;
29568;SDS011;16501;51.462;14.346;2023-12-07T05:10:58;25.58;;;15.45;;
29568;SDS011;16501;51.462;14.346;2023-12-07T05:13:23;26.00;;;15.75;;
29568;SDS011;16501;51.462;14.346;2023-12-07T05:15:48;29.52;;;15.98;;
29568;SDS011;16501;51.462;14.346;2023-12-07T05:18:14;25.70;;;16.42;;
29568;SDS011;16501;51.462;14.346;2023-12-07T05:20:41;28.17;;;15.80;;
29568;SDS011;16501;51.462;14.346;2023-12-07T05:23:08;26.80;;;16.35;;
29568;SDS011;16501;51.462;14.346;2023-12-07T05:25:33;27.95;;;15.65;;
29568;SDS011;16501;51.462;14.346;2023-12-07T05:27:58;26.52;;;15.40;;
29568;SDS011;16501;51.462;14.346;2023-12-07T05:30:23;31.23;;;16.52;;
29568;SDS011;16501;51.462;14.346;2023-12-07T05:32:49;25.40;;;15.68;;
29568;SDS011;16501;51.462;14.346;2023-12-07T05:35:15;27.40;;;15.68;;
29568;SDS011;16501;51.462;14.346;2023-12-07T05:37:40;25.88;;;15.85;;
29568;SDS011;16501;51.462;14.346;2023-12-07T05:40:06;30.88;;;16.02;;
29568;SDS011;16501;51.462;14.346;2023-12-07T05:42:32;29.20;;;16.15;;
29568;SDS011;16501;51.462;14.346;2023-12-07T05:44:57;28.13;;;16.05;;
29568;SDS011;16501;51.462;14.346;2023-12-07T05:47:23;72.03;;;34.35;;
29568;SDS011;16501;51.462;14.346;2023-12-07T05:49:48;78.68;;;36.33;;
29568;SDS011;16501;51.462;14.346;2023-12-07T05:52:13;339.98;;;136.10;;
29568;SDS011;16501;51.462;14.346;2023-12-07T05:54:39;389.77;;;162.63;;
29568;SDS011;16501;51.462;14.346;2023-12-07T05:57:07;215.20;;;96.90;;
29568;SDS011;16501;51.462;14.346;2023-12-07T05:59:36;225.35;;;105.70;;
29568;SDS011;16501;51.462;14.346;2023-12-07T06:02:02;139.57;;;82.60;;
29568;SDS011;16501;51.462;14.346;2023-12-07T06:04:27;90.60;;;59.65;;
29568;SDS011;16501;51.462;14.346;2023-12-07T06:06:52;36.58;;;22.92;;
29568;SDS011;16501;51.462;14.346;2023-12-07T06:09:18;31.30;;;20.98;;
29568;SDS011;16501;51.462;14.346;2023-12-07T06:11:43;28.75;;;17.80;;
29568;SDS011;16501;51.462;14.346;2023-12-07T06:14:08;26.52;;;16.48;;
29568;SDS011;16501;51.462;14.346;2023-12-07T06:16:33;27.48;;;17.02;;
29568;SDS011;16501;51.462;14.346;2023-12-07T06:18:59;25.73;;;16.33;;
29568;SDS011;16501;51.462;14.346;2023-12-07T06:21:24;27.05;;;16.17;;
29568;SDS011;16501;51.462;14.346;2023-12-07T06:23:50;25.77;;;15.80;;
29568;SDS011;16501;51.462;14.346;2023-12-07T06:26:15;26.73;;;16.20;;
29568;SDS011;16501;51.462;14.346;2023-12-07T06:28:41;28.02;;;16.17;;
29568;SDS011;16501;51.462;14.346;2023-12-07T06:31:07;28.33;;;16.67;;
29568;SDS011;16501;51.462;14.346;2023-12-07T06:33:33;30.75;;;18.23;;
29568;SDS011;16501;51.462;14.346;2023-12-07T06:35:59;32.55;;;16.85;;
29568;SDS011;16501;51.462;14.346;2023-12-07T06:38:25;30.10;;;17.02;;
29568;SDS011;16501;51.462;14.346;2023-12-07T06:40:50;28.80;;;16.13;;
29568;SDS011;16501;51.462;14.346;2023-12-07T06:43:15;32.58;;;17.08;;
29568;SDS011;16501;51.462;14.346;2023-12-07T06:45:41;26.00;;;15.88;;
29568;SDS011;16501;51.462;14.346;2023-12-07T06:48:06;34.83;;;19.65;;
29568;SDS011;16501;51.462;14.346;2023-12-07T06:50:31;31.40;;;18.27;;
29568;SDS011;16501;51.462;14.346;2023-12-07T06:52:57;37.05;;;20.10;;
29568;SDS011;16501;51.462;14.346;2023-12-07T06:55:22;263.45;;;112.93;;
29568;SDS011;16501;51.462;14.346;2023-12-07T06:57:47;60.78;;;33.67;;
29568;SDS011;16501;51.462;14.346;2023-12-07T07:00:13;42.47;;;23.35;;
29568;SDS011;16501;51.462;14.346;2023-12-07T07:02:38;68.53;;;39.78;;
29568;SDS011;16501;51.462;14.346;2023-12-07T07:05:04;37.88;;;22.58;;
29568;SDS011;16501;51.462;14.346;2023-12-07T07:07:38;30.27;;;17.92;;
29568;SDS011;16501;51.462;14.346;2023-12-07T07:10:04;32.75;;;19.48;;
29568;SDS011;16501;51.462;14.346;2023-12-07T07:12:29;35.72;;;20.73;;
29568;SDS011;16501;51.462;14.346;2023-12-07T07:14:55;33.33;;;19.90;;
29568;SDS011;16501;51.462;14.346;2023-12-07T07:17:20;34.22;;;19.98;;
29568;SDS011;16501;51.462;14.346;2023-12-07T07:19:46;34.58;;;19.88;;
29568;SDS011;16501;51.462;14.346;2023-12-07T07:22:11;33.00;;;18.55;;
29568;SDS011;16501;51.462;14.346;2023-12-07T07:24:36;34.45;;;19.35;;
29568;SDS011;16501;51.462;14.346;2023-12-07T07:27:01;30.15;;;17.75;;
29568;SDS011;16501;51.462;14.346;2023-12-07T07:29:27;31.83;;;19.52;;
29568;SDS011;16501;51.462;14.346;2023-12-07T07:31:53;31.42;;;18.63;;
29568;SDS011;16501;51.462;14.346;2023-12-07T07:34:18;31.27;;;18.48;;
29568;SDS011;16501;51.462;14.346;2023-12-07T07:36:43;30.50;;;17.83;;
29568;SDS011;16501;51.462;14.346;2023-12-07T07:39:09;34.40;;;17.45;;
29568;SDS011;16501;51.462;14.346;2023-12-07T07:41:35;34.72;;;19.63;;
29568;SDS011;16501;51.462;14.346;2023-12-07T07:44:01;33.47;;;18.92;;
29568;SDS011;16501;51.462;14.346;2023-12-07T07:46:27;33.17;;;19.70;;
29568;SDS011;16501;51.462;14.346;2023-12-07T07:48:52;35.00;;;19.58;;
29568;SDS011;16501;51.462;14.346;2023-12-07T07:51:17;29.83;;;17.65;;
29568;SDS011;16501;51.462;14.346;2023-12-07T07:53:43;28.08;;;17.80;;
29568;SDS011;16501;51.462;14.346;2023-12-07T07:56:08;31.42;;;17.42;;
29568;SDS011;16501;51.462;14.346;2023-12-07T07:58:33;32.78;;;19.15;;
29568;SDS011;16501;51.462;14.346;2023-12-07T08:01:01;32.30;;;18.98;;
29568;SDS011;16501;51.462;14.346;2023-12-07T08:03:27;38.10;;;22.60;;
29568;SDS011;16501;51.462;14.346;2023-12-07T08:05:52;46.53;;;23.40;;
29568;SDS011;16501;51.462;14.346;2023-12-07T08:08:17;44.88;;;24.42;;
29568;SDS011;16501;51.462;14.346;2023-12-07T08:10:42;36.05;;;21.02;;
29568;SDS011;16501;51.462;14.346;2023-12-07T08:13:07;36.88;;;20.35;;
29568;SDS011;16501;51.462;14.346;2023-12-07T08:15:33;37.03;;;20.48;;
29568;SDS011;16501;51.462;14.346;2023-12-07T08:17:59;36.75;;;19.45;;
29568;SDS011;16501;51.462;14.346;2023-12-07T08:20:24;36.72;;;20.65;;
29568;SDS011;16501;51.462;14.346;2023-12-07T08:22:49;38.97;;;21.33;;
29568;SDS011;16501;51.462;14.346;2023-12-07T08:25:15;37.55;;;19.30;;
29568;SDS011;16501;51.462;14.346;2023-12-07T08:27:42;39.15;;;20.77;;
29568;SDS011;16501;51.462;14.346;2023-12-07T08:30:09;39.65;;;20.98;;
29568;SDS011;16501;51.462;14.346;2023-12-07T08:32:34;43.25;;;24.90;;
29568;SDS011;16501;51.462;14.346;2023-12-07T08:35:01;45.30;;;23.90;;
29568;SDS011;16501;51.462;14.346;2023-12-07T08:37:26;41.80;;;23.50;;
29568;SDS011;16501;51.462;14.346;2023-12-07T08:39:51;44.67;;;23.17;;
29568;SDS011;16501;51.462;14.346;2023-12-07T08:42:16;39.03;;;20.83;;
29568;SDS011;16501;51.462;14.346;2023-12-07T08:44:42;44.13;;;22.90;;
29568;SDS011;16501;51.462;14.346;2023-12-07T08:47:08;38.92;;;22.98;;
29568;SDS011;16501;51.462;14.346;2023-12-07T08:49:34;37.88;;;21.67;;
29568;SDS011;16501;51.462;14.346;2023-12-07T08:52:00;40.70;;;22.15;;
29568;SDS011;16501;51.462;14.346;2023-12-07T08:54:25;40.95;;;22.98;;
29568;SDS011;16501;51.462;14.346;2023-12-07T08:56:51;39.20;;;21.88;;
29568;SDS011;16501;51.462;14.346;2023-12-07T08:59:16;44.65;;;23.08;;
29568;SDS011;16501;51.462;14.346;2023-12-07T09:01:42;41.17;;;22.05;;
29568;SDS011;16501;51.462;14.346;2023-12-07T09:04:07;39.03;;;22.40;;
29568;SDS011;16501;51.462;14.346;2023-12-07T09:06:32;37.63;;;21.23;;
29568;SDS011;16501;51.462;14.346;2023-12-07T09:08:57;40.75;;;22.13;;
29568;SDS011;16501;51.462;14.346;2023-12-07T09:11:23;38.60;;;22.38;;
29568;SDS011;16501;51.462;14.346;2023-12-07T09:13:48;36.70;;;20.83;;
29568;SDS011;16501;51.462;14.346;2023-12-07T09:16:13;37.00;;;21.88;;
29568;SDS011;16501;51.462;14.346;2023-12-07T09:18:40;45.13;;;22.27;;
29568;SDS011;16501;51.462;14.346;2023-12-07T09:21:06;36.40;;;21.00;;
29568;SDS011;16501;51.462;14.346;2023-12-07T09:23:31;37.83;;;22.27;;
29568;SDS011;16501;51.462;14.346;2023-12-07T09:25:56;38.65;;;19.95;;
29568;SDS011;16501;51.462;14.346;2023-12-07T09:28:22;39.13;;;21.90;;
29568;SDS011;16501;51.462;14.346;2023-12-07T09:30:47;37.13;;;19.23;;
29568;SDS011;16501;51.462;14.346;2023-12-07T09:33:13;37.13;;;21.20;;
29568;SDS011;16501;51.462;14.346;2023-12-07T09:35:38;33.05;;;18.25;;
29568;SDS011;16501;51.462;14.346;2023-12-07T09:38:04;34.80;;;20.55;;
29568;SDS011;16501;51.462;14.346;2023-12-07T09:40:29;38.45;;;20.58;;
29568;SDS011;16501;51.462;14.346;2023-12-07T09:42:55;36.88;;;20.20;;
29568;SDS011;16501;51.462;14.346;2023-12-07T09:45:20;35.25;;;19.40;;
29568;SDS011;16501;51.462;14.346;2023-12-07T09:47:47;37.78;;;19.85;;
29568;SDS011;16501;51.462;14.346;2023-12-07T09:50:15;35.90;;;20.65;;
29568;SDS011;16501;51.462;14.346;2023-12-07T09:52:42;30.77;;;17.67;;
29568;SDS011;16501;51.462;14.346;2023-12-07T09:55:08;31.23;;;17.67;;
29568;SDS011;16501;51.462;14.346;2023-12-07T09:57:34;47.13;;;24.20;;
29568;SDS011;16501;51.462;14.346;2023-12-07T10:00:01;37.13;;;20.63;;
29568;SDS011;16501;51.462;14.346;2023-12-07T10:02:27;38.90;;;20.15;;
29568;SDS011;16501;51.462;14.346;2023-12-07T10:05:05;35.70;;;20.30;;
29568;SDS011;16501;51.462;14.346;2023-12-07T10:07:32;43.38;;;21.98;;
29568;SDS011;16501;51.462;14.346;2023-12-07T10:09:59;36.17;;;20.42;;
29568;SDS011;16501;51.462;14.346;2023-12-07T10:12:25;44.78;;;23.35;;
29568;SDS011;16501;51.462;14.346;2023-12-07T10:14:50;42.88;;;24.25;;
29568;SDS011;16501;51.462;14.346;2023-12-07T10:17:15;43.65;;;27.02;;
29568;SDS011;16501;51.462;14.346;2023-12-07T10:19:40;38.20;;;22.13;;
29568;SDS011;16501;51.462;14.346;2023-12-07T10:22:12;38.60;;;22.50;;
29568;SDS011;16501;51.462;14.346;2023-12-07T10:24:38;43.03;;;23.80;;
29568;SDS011;16501;51.462;14.346;2023-12-07T10:27:04;40.47;;;21.25;;
29568;SDS011;16501;51.462;14.346;2023-12-07T10:29:34;36.38;;;21.70;;
29568;SDS011;16501;51.462;14.346;2023-12-07T10:32:03;40.30;;;20.10;;
29568;SDS011;16501;51.462;14.346;2023-12-07T10:34:30;42.00;;;21.98;;
29568;SDS011;16501;51.462;14.346;2023-12-07T10:36:56;39.33;;;20.17;;
29568;SDS011;16501;51.462;14.346;2023-12-07T10:39:23;38.55;;;21.50;;
29568;SDS011;16501;51.462;14.346;2023-12-07T10:41:49;33.47;;;20.38;;
29568;SDS011;16501;51.462;14.346;2023-12-07T10:44:17;42.45;;;22.45;;
29568;SDS011;16501;51.462;14.346;2023-12-07T10:46:44;39.60;;;22.25;;
29568;SDS011;16501;51.462;14.346;2023-12-07T10:49:11;41.17;;;21.02;;
29568;SDS011;16501;51.462;14.346;2023-12-07T10:54:24;36.28;;;18.70;;
29568;SDS011;16501;51.462;14.346;2023-12-07T10:57:05;36.63;;;19.63;;
29568;SDS011;16501;51.462;14.346;2023-12-07T10:59:31;38.10;;;20.40;;
29568;SDS011;16501;51.462;14.346;2023-12-07T11:02:00;38.97;;;19.67;;
29568;SDS011;16501;51.462;14.346;2023-12-07T11:04:26;36.63;;;19.27;;
29568;SDS011;16501;51.462;14.346;2023-12-07T11:06:52;39.58;;;19.73;;
29568;SDS011;16501;51.462;14.346;2023-12-07T11:09:23;35.25;;;19.42;;
29568;SDS011;16501;51.462;14.346;2023-12-07T11:12:09;35.90;;;18.98;;
29568;SDS011;16501;51.462;14.346;2023-12-07T11:14:42;42.80;;;20.27;;
29568;SDS011;16501;51.462;14.346;2023-12-07T11:17:07;39.70;;;20.13;;
29568;SDS011;16501;51.462;14.346;2023-12-07T11:21:59;37.90;;;20.67;;
29568;SDS011;16501;51.462;14.346;2023-12-07T11:24:25;40.92;;;19.35;;
29568;SDS011;16501;51.462;14.346;2023-12-07T11:26:56;43.55;;;19.95;;
29568;SDS011;16501;51.462;14.346;2023-12-07T11:29:23;42.47;;;21.57;;
29568;SDS011;16501;51.462;14.346;2023-12-07T11:31:49;41.33;;;20.60;;
29568;SDS011;16501;51.462;14.346;2023-12-07T11:34:33;39.90;;;20.95;;
29568;SDS011;16501;51.462;14.346;2023-12-07T11:37:02;39.25;;;20.33;;
29568;SDS011;16501;51.462;14.346;2023-12-07T11:39:37;38.53;;;19.08;;
29568;SDS011;16501;51.462;14.346;2023-12-07T11:44:37;37.80;;;20.55;;
29568;SDS011;16501;51.462;14.346;2023-12-07T11:47:04;38.63;;;18.90;;
29568;SDS011;16501;51.462;14.346;2023-12-07T11:49:30;40.70;;;23.70;;
29568;SDS011;16501;51.462;14.346;2023-12-07T11:51:57;37.33;;;20.08;;
29568;SDS011;16501;51.462;14.346;2023-12-07T11:54:23;39.88;;;20.20;;
29568;SDS011;16501;51.462;14.346;2023-12-07T11:56:55;44.90;;;22.23;;
29568;SDS011;16501;51.462;14.346;2023-12-07T11:59:21;47.25;;;23.40;;
29568;SDS011;16501;51.462;14.346;2023-12-07T12:01:48;38.30;;;20.92;;
29568;SDS011;16501;51.462;14.346;2023-12-07T12:04:14;39.33;;;21.27;;
29568;SDS011;16501;51.462;14.346;2023-12-07T12:06:40;38.03;;;20.63;;
29568;SDS011;16501;51.462;14.346;2023-12-07T12:09:05;37.90;;;19.73;;
29568;SDS011;16501;51.462;14.346;2023-12-07T12:11:30;37.13;;;19.75;;
29568;SDS011;16501;51.462;14.346;2023-12-07T12:13:55;40.42;;;21.00;;
29568;SDS011;16501;51.462;14.346;2023-12-07T12:16:22;36.97;;;20.50;;
29568;SDS011;16501;51.462;14.346;2023-12-07T12:18:48;44.20;;;21.38;;
29568;SDS011;16501;51.462;14.346;2023-12-07T12:21:13;47.25;;;21.45;;
29568;SDS011;16501;51.462;14.346;2023-12-07T12:23:38;43.33;;;21.80;;
29568;SDS011;16501;51.462;14.346;2023-12-07T12:26:05;41.28;;;19.67;;
29568;SDS011;16501;51.462;14.346;2023-12-07T12:28:32;40.38;;;21.20;;
29568;SDS011;16501;51.462;14.346;2023-12-07T12:30:57;46.05;;;20.92;;
29568;SDS011;16501;51.462;14.346;2023-12-07T12:33:23;45.90;;;21.00;;
29568;SDS011;16501;51.462;14.346;2023-12-07T12:36:00;33.65;;;19.30;;
29568;SDS011;16501;51.462;14.346;2023-12-07T12:38:27;37.22;;;19.27;;
29568;SDS011;16501;51.462;14.346;2023-12-07T12:40:53;45.03;;;20.70;;
29568;SDS011;16501;51.462;14.346;2023-12-07T12:43:19;35.83;;;18.63;;
29568;SDS011;16501;51.462;14.346;2023-12-07T12:45:44;37.42;;;20.15;;
29568;SDS011;16501;51.462;14.346;2023-12-07T12:48:10;37.28;;;20.08;;
29568;SDS011;16501;51.462;14.346;2023-12-07T12:50:39;39.95;;;20.70;;
29568;SDS011;16501;51.462;14.346;2023-12-07T12:53:06;33.72;;;19.13;;
29568;SDS011;16501;51.462;14.346;2023-12-07T12:55:36;32.75;;;19.20;;
29568;SDS011;16501;51.462;14.346;2023-12-07T12:58:02;35.90;;;19.98;;
29568;SDS011;16501;51.462;14.346;2023-12-07T13:00:29;38.08;;;20.27;;
29568;SDS011;16501;51.462;14.346;2023-12-07T13:02:55;35.10;;;18.98;;
29568;SDS011;16501;51.462;14.346;2023-12-07T13:05:20;38.30;;;19.27;;
29568;SDS011;16501;51.462;14.346;2023-12-07T13:07:46;48.72;;;24.70;;
29568;SDS011;16501;51.462;14.346;2023-12-07T13:10:13;55.00;;;25.55;;
29568;SDS011;16501;51.462;14.346;2023-12-07T13:12:39;44.03;;;22.17;;
29568;SDS011;16501;51.462;14.346;2023-12-07T13:15:05;39.53;;;21.17;;
29568;SDS011;16501;51.462;14.346;2023-12-07T13:17:30;34.67;;;18.00;;
29568;SDS011;16501;51.462;14.346;2023-12-07T13:19:55;58.63;;;28.75;;
29568;SDS011;16501;51.462;14.346;2023-12-07T13:22:21;41.63;;;20.70;;
29568;SDS011;16501;51.462;14.346;2023-12-07T13:24:47;38.58;;;20.38;;
29568;SDS011;16501;51.462;14.346;2023-12-07T13:27:13;40.40;;;19.13;;
29568;SDS011;16501;51.462;14.346;2023-12-07T13:29:40;35.38;;;17.92;;
29568;SDS011;16501;51.462;14.346;2023-12-07T13:32:06;33.83;;;17.67;;
29568;SDS011;16501;51.462;14.346;2023-12-07T13:34:31;32.55;;;18.40;;
29568;SDS011;16501;51.462;14.346;2023-12-07T13:36:56;29.08;;;16.58;;
29568;SDS011;16501;51.462;14.346;2023-12-07T13:39:21;36.22;;;19.52;;
29568;SDS011;16501;51.462;14.346;2023-12-07T13:41:47;33.88;;;17.67;;
29568;SDS011;16501;51.462;14.346;2023-12-07T13:44:14;31.63;;;16.95;;
29568;SDS011;16501;51.462;14.346;2023-12-07T13:46:42;29.63;;;16.08;;
29568;SDS011;16501;51.462;14.346;2023-12-07T13:49:07;30.95;;;17.58;;
29568;SDS011;16501;51.462;14.346;2023-12-07T13:51:33;32.35;;;18.83;;
29568;SDS011;16501;51.462;14.346;2023-12-07T13:53:58;34.65;;;18.85;;
29568;SDS011;16501;51.462;14.346;2023-12-07T13:56:24;29.13;;;16.23;;
29568;SDS011;16501;51.462;14.346;2023-12-07T13:58:49;38.92;;;20.73;;
29568;SDS011;16501;51.462;14.346;2023-12-07T14:01:16;36.20;;;19.63;;
29568;SDS011;16501;51.462;14.346;2023-12-07T14:03:42;31.90;;;17.42;;
29568;SDS011;16501;51.462;14.346;2023-12-07T14:06:07;29.45;;;16.98;;
29568;SDS011;16501;51.462;14.346;2023-12-07T14:08:33;31.90;;;16.65;;
29568;SDS011;16501;51.462;14.346;2023-12-07T14:10:58;30.33;;;17.15;;
29568;SDS011;16501;51.462;14.346;2023-12-07T14:13:23;32.08;;;16.80;;
29568;SDS011;16501;51.462;14.346;2023-12-07T14:15:50;32.05;;;17.50;;